FYGA4: White River At Fayetteville, AR

Data processed at Fri Feb 23 2018 22:09


All information presented herein is the property of the government of the United States of America and may be revised or deleted at any time without prior notice.
Dissemination of this information without the expressed written consent of the Public Affairs Office, Tulsa District U.S. Army Corps of Engineers is strictly prohibited.
These data are gathered electronically and, as presented, have not undergone any form of quality control. These data are not guaranteed to be valid or correct.
Go to home page.
Go to station list.

Downstream station:


Previous Day
Next Day
Current Day
    
SHEF ID:       FYGA4     White River near Fayetteville, A
STATION TYPE:  

               PRECIP     STAGE  RIV-FLOW  WTR-TEMP   DIS-OXY        PH   CONDUCT  BAT-LOAD
                   in        ft       cfs         F      mg/l        su   umho/cm      volt
              Ccp-Rev   Ccp-Rev   Ccp-Rev   Ccp-Rev   Ccp-Rev   Ccp-Rev   Ccp-Rev   Ccp-Rev
(US/Central)
02/23 00:00      0.00      6.93      2557     46.80     11.16      7.35        85     12.49
02/23 01:00      0.00      7.12      2708     46.92     11.13      7.39        91     12.49
02/23 02:00      0.00      7.33      2879     47.08     11.12      7.38        88     12.49
02/23 03:00      0.00      7.62      3122     47.23     11.11      7.37        87     12.41
02/23 04:00      0.00      7.82      5154     47.34     11.09      7.36        87     12.41
02/23 05:00      0.00      7.92      5259     47.44     11.08      7.37        88     12.41
02/23 06:00      0.00      7.87      5207     47.50     11.07      7.37        89     12.41
02/23 07:00      0.00      7.79      5123     47.55     11.06      7.38        89     12.41
02/23 08:00      0.00      7.65      4978     47.62     11.07      7.38        89     12.41
02/23 09:00      0.00      7.51      4835     47.70     11.06      7.37        87     12.41
02/23 10:00      0.00      7.35      4673     47.73     11.05      7.37        85     12.41
02/23 11:00      0.00      7.24      4563     47.77     11.04      7.36        84     12.41
02/23 12:00      0.00      7.11      4434     47.80     11.04      7.35        82     12.49
02/23 13:00      0.00      6.99      4317     47.80     11.03      7.35        81     12.41
02/23 14:00      0.18      6.92      4249     47.79     11.04      7.35        81     12.41
02/23 15:00      0.20      6.90      4230     47.80     11.03      7.34        80     12.41
02/23 16:00      0.05      6.86      4191     47.86     11.01      7.35        80     12.41
02/23 17:00      0.08      7.04      4366     47.86     11.00      7.36        82     12.41
02/23 18:00      0.06      7.36      4683     47.84     10.98      7.38        87     12.41
02/23 19:00      0.10      7.70      5030     47.89     10.95      7.44        98     12.41
02/23 20:00      0.20      8.15      5504     48.00     10.93      7.50        99     12.41
02/23 21:00      0.05      8.74      6152     48.04     10.92      7.44        97     12.41
02/23 22:00      ----      ----      ----      ----      ----      ----      ----      ----
02/23 23:00      ----      ----      ----      ----      ----      ----      ----      ----